Time;durP1;ratioP1;P1;durP2;ratioP2;P2;SDS_P1;SDS_P2;PMS_P1;PMS_P2;Temp;Humidity;BMP_temperature;BMP_pressure;BME280_temperature;BME280_humidity;BME280_pressure;Samples;Min_cycle;Max_cycle;Signal;HPM_P1;HPM_P2
2023/11/25 00:05:39;;;;;;;0.47;0.47;;;;;;;1.58;80.56;99547.25;15737444;28;20131;-49
2023/11/25 00:13:15;;;;;;;0.38;0.38;;;;;;;1.14;80.99;99557.78;15719809;28;20141;-49
2023/11/25 00:20:49;;;;;;;0.00;0.00;;;;;;;0.96;81.09;99566.81;15736034;28;20396;-49
2023/11/25 00:28:27;;;;;;;0.00;0.00;;;;;;;1.21;81.23;99585.13;15711467;28;20410;-46
2023/11/25 00:36:03;;;;;;;0.00;0.00;;;;;;;1.10;80.12;99604.88;15717333;28;20094;-46
2023/11/25 00:43:38;;;;;;;0.00;0.00;;;;;;;1.13;79.91;99611.63;15716187;28;20040;-47
2023/11/25 00:51:11;;;;;;;0.00;0.00;;;;;;;0.91;81.35;99637.03;15733113;28;20120;-50
2023/11/25 00:58:47;;;;;;;0.00;0.00;;;;;;;1.16;80.32;99648.25;15716973;28;20142;-49
2023/11/25 01:06:21;;;;;;;0.00;0.00;;;;;;;0.83;80.32;99637.91;15716129;28;20052;-49
2023/11/25 01:13:55;;;;;;;0.00;0.00;;;;;;;1.09;78.86;99665.81;15698786;28;20215;-50
2023/11/25 01:21:29;;;;;;;0.00;0.00;;;;;;;0.79;80.12;99673.56;15714661;28;20118;-49
2023/11/25 01:29:04;;;;;;;0.00;0.00;;;;;;;0.84;79.25;99688.91;15714492;28;20045;-50
2023/11/25 01:36:39;;;;;;;0.00;0.00;;;;;;;1.12;78.34;99705.09;15710141;28;20135;-48
2023/11/25 01:44:14;;;;;;;0.00;0.00;;;;;;;0.67;80.13;99711.94;15731361;28;20498;-47
2023/11/25 01:51:50;;;;;;;0.80;0.80;;;;;;;0.55;81.33;99727.31;15714922;28;20049;-51
2023/11/25 01:59:26;;;;;;;0.00;0.00;;;;;;;0.77;81.11;99712.56;15712008;22;20075;-52
2023/11/25 02:07:00;;;;;;;0.00;0.00;;;;;;;0.92;81.10;99716.09;15714729;28;20051;-54
2023/11/25 02:14:37;;;;;;;0.00;0.00;;;;;;;0.77;82.42;99717.84;15653061;28;20029;-53
2023/11/25 02:22:11;;;;;;;0.00;0.00;;;;;;;1.23;81.03;99718.75;15669724;28;20055;-52
2023/11/25 02:29:46;;;;;;;0.00;0.00;;;;;;;1.19;80.99;99730.66;15651570;28;20044;-54
2023/11/25 02:37:19;;;;;;;0.00;0.00;;;;;;;1.08;81.72;99748.75;15650403;28;20044;-55
2023/11/25 02:44:54;;;;;;;0.00;0.00;;;;;;;1.06;82.00;99748.91;15671256;28;20068;-52
2023/11/25 02:52:28;;;;;;;0.00;0.00;;;;;;;1.10;82.50;99757.31;15662434;28;20545;-52
2023/11/25 03:00:16;;;;;;;0.00;0.00;;;;;;;1.01;83.62;99775.03;15655828;28;20192;-53
2023/11/25 03:07:52;;;;;;;0.00;0.00;;;;;;;1.11;83.72;99780.09;15672900;28;20499;-53
2023/11/25 03:15:26;;;;;;;0.00;0.00;;;;;;;0.98;84.52;99781.50;15662122;28;20451;-52
2023/11/25 03:23:03;;;;;;;0.00;0.00;;;;;;;1.28;82.69;99781.66;15677913;28;20076;-51
2023/11/25 03:30:38;;;;;;;0.00;0.00;;;;;;;1.23;83.23;99789.28;15661391;28;20064;-56
2023/11/25 03:38:12;;;;;;;0.00;0.00;;;;;;;1.32;83.02;99796.19;15657549;28;20415;-52
2023/11/25 03:45:47;;;;;;;0.00;0.00;;;;;;;1.16;83.82;99788.31;15658671;28;20137;-51
2023/11/25 03:53:20;;;;;;;0.00;0.00;;;;;;;1.21;84.06;99807.97;15652873;28;20049;-54
2023/11/25 04:00:58;;;;;;;0.55;0.55;;;;;;;1.39;83.26;99817.47;15641672;28;20454;-53
2023/11/25 04:08:37;;;;;;;0.00;0.00;;;;;;;1.38;82.73;99821.94;15658289;28;20482;-52
2023/11/25 04:16:19;;;;;;;0.00;0.00;;;;;;;1.45;82.16;99828.19;15658814;28;20068;-50
2023/11/25 04:23:55;;;;;;;0.00;0.00;;;;;;;1.14;83.51;99814.13;15657827;28;20415;-50
2023/11/25 04:31:30;;;;;;;0.00;0.00;;;;;;;1.20;84.30;99839.84;15656390;28;20087;-49
2023/11/25 04:39:05;;;;;;;0.00;0.00;;;;;;;1.12;83.62;99843.38;15655128;28;20072;-53
2023/11/25 04:46:40;;;;;;;0.00;0.00;;;;;;;1.05;83.66;99854.78;15673309;28;20041;-50
2023/11/25 04:54:13;;;;;;;0.00;0.00;;;;;;;1.19;82.88;99854.88;15672700;28;20045;-53
2023/11/25 05:01:49;;;;;;;0.00;0.00;;;;;;;1.25;82.30;99861.31;15664870;28;20048;-51
2023/11/25 05:09:25;;;;;;;1.25;1.10;;;;;;;1.35;82.05;99874.31;15672283;28;20048;-51
2023/11/25 05:17:01;;;;;;;0.00;0.00;;;;;;;1.00;83.03;99874.59;15655177;28;20060;-50
2023/11/25 05:24:35;;;;;;;0.00;0.00;;;;;;;1.24;81.62;99883.47;15671735;28;20045;-50
2023/11/25 05:32:10;;;;;;;0.00;0.00;;;;;;;0.88;81.26;99888.34;15671420;28;20044;-51
2023/11/25 05:39:45;;;;;;;0.00;0.00;;;;;;;1.01;81.66;99905.31;15668947;28;20041;-51
2023/11/25 05:47:21;;;;;;;0.00;0.00;;;;;;;0.92;81.45;99932.75;15671423;28;20064;-50
2023/11/25 05:54:55;;;;;;;0.00;0.00;;;;;;;0.85;81.35;99923.84;15671210;28;20091;-50
2023/11/25 06:02:32;;;;;;;0.00;0.00;;;;;;;0.71;81.56;99924.53;15652370;28;20045;-52
2023/11/25 06:10:07;;;;;;;0.00;0.00;;;;;;;0.55;82.46;99927.16;15672653;28;20445;-50
2023/11/25 06:17:43;;;;;;;0.00;0.00;;;;;;;0.47;82.95;99933.31;15672524;28;20041;-52
2023/11/25 06:25:17;;;;;;;0.00;0.00;;;;;;;0.43;81.91;99930.16;15662668;28;20056;-52
2023/11/25 06:32:52;;;;;;;0.00;0.00;;;;;;;0.66;80.74;99932.13;15680875;28;20403;-52
2023/11/25 06:40:25;;;;;;;0.00;0.00;;;;;;;0.50;80.79;99946.97;15681175;28;20492;-50
2023/11/25 06:48:00;;;;;;;0.00;0.00;;;;;;;0.54;80.83;99941.38;15663199;28;20041;-51
2023/11/25 06:55:41;;;;;;;1.40;1.30;;;;;;;0.67;80.72;99939.88;15662722;28;20047;-53
2023/11/25 07:03:16;;;;;;;0.00;0.00;;;;;;;0.59;80.68;99946.97;15663042;28;20052;-51
2023/11/25 07:10:53;;;;;;;0.00;0.00;;;;;;;0.56;80.54;99963.16;15663174;28;20048;-50
2023/11/25 07:18:28;;;;;;;0.00;0.00;;;;;;;0.34;80.54;99965.44;15679798;28;20499;-51
2023/11/25 07:26:01;;;;;;;0.00;0.00;;;;;;;0.32;80.47;99948.94;15679979;28;20562;-50
2023/11/25 07:33:36;;;;;;;1.48;1.00;;;;;;;0.46;80.35;99936.91;15677737;28;20037;-50
2023/11/25 07:41:16;;;;;;;0.00;0.00;;;;;;;0.42;80.42;99936.44;15661248;28;20103;-50
2023/11/25 07:48:51;;;;;;;0.00;0.00;;;;;;;0.57;79.75;99938.41;15678645;28;20250;-50
2023/11/25 07:56:24;;;;;;;0.00;0.00;;;;;;;0.93;78.59;99945.00;15658125;28;20073;-49
2023/11/25 08:04:02;;;;;;;0.00;0.00;;;;;;;0.89;77.91;99948.97;15677114;28;20054;-52
2023/11/25 08:11:38;;;;;;;0.00;0.00;;;;;;;0.94;76.85;99946.63;15676682;28;20518;-52
2023/11/25 08:19:14;;;;;;;0.00;0.00;;;;;;;1.25;75.77;99948.53;15677071;28;20060;-52
2023/11/25 08:26:50;;;;;;;0.00;0.00;;;;;;;1.63;74.46;99954.03;15653115;28;20080;-52
2023/11/25 08:34:24;;;;;;;0.00;0.00;;;;;;;1.49;74.95;99945.84;15658967;28;20072;-52
2023/11/25 08:41:59;;;;;;;0.00;0.00;;;;;;;1.92;74.55;99959.53;15654987;28;20065;-54
2023/11/25 08:49:33;;;;;;;0.00;0.00;;;;;;;1.62;75.14;99960.31;15675094;28;20535;-53
2023/11/25 08:57:08;;;;;;;0.00;0.00;;;;;;;2.59;72.47;99950.16;15676180;28;20037;-53
2023/11/25 09:04:43;;;;;;;0.08;0.08;;;;;;;2.30;73.65;99965.75;15658189;28;20049;-53
2023/11/25 09:12:17;;;;;;;0.00;0.00;;;;;;;2.47;73.08;99965.63;15657472;28;20045;-53
2023/11/25 09:19:52;;;;;;;0.03;0.03;;;;;;;3.84;69.93;99956.47;15677698;28;20171;-52
2023/11/25 09:27:25;;;;;;;0.10;0.10;;;;;;;3.90;67.74;99899.16;15675900;28;20044;-53
2023/11/25 09:35:00;;;;;;;0.00;0.00;;;;;;;4.83;66.23;99954.00;15673519;28;20403;-54
2023/11/25 09:42:35;;;;;;;1.65;1.55;;;;;;;4.40;66.91;99943.41;15672709;28;20075;-54
2023/11/25 09:50:10;;;;;;;0.00;0.00;;;;;;;4.45;67.37;99935.69;15672887;28;20049;-53
2023/11/25 09:57:45;;;;;;;0.00;0.00;;;;;;;3.46;71.10;99934.56;15674892;28;20251;-54
2023/11/25 10:05:22;;;;;;;0.00;0.00;;;;;;;3.23;74.12;99919.56;15683773;28;20049;-52
2023/11/25 10:12:56;;;;;;;0.03;0.03;;;;;;;3.67;72.78;99909.91;15683755;28;20048;-53
2023/11/25 10:20:30;;;;;;;0.00;0.00;;;;;;;3.07;74.56;99901.16;15683412;28;20064;-52
2023/11/25 10:28:04;;;;;;;0.00;0.00;;;;;;;3.26;74.64;99898.00;15685231;28;20045;-52
2023/11/25 10:35:40;;;;;;;1.20;0.75;;;;;;;3.31;75.28;99900.91;15684615;28;20037;-55
2023/11/25 10:43:13;;;;;;;0.00;0.00;;;;;;;3.16;74.95;99908.03;15666843;28;20504;-53
2023/11/25 10:50:48;;;;;;;0.00;0.00;;;;;;;3.41;75.55;99890.03;15662290;28;20525;-52
2023/11/25 10:58:22;;;;;;;2.05;0.95;;;;;;;2.98;76.26;99892.47;15682797;28;20102;-51
2023/11/25 11:05:59;;;;;;;0.03;0.03;;;;;;;3.18;77.14;99884.00;15663664;28;20037;-53
2023/11/25 11:13:36;;;;;;;0.00;0.00;;;;;;;2.67;79.46;99897.94;15677389;28;20056;-51
2023/11/25 11:21:15;;;;;;;0.00;0.00;;;;;;;2.15;81.05;99881.97;15661645;28;20522;-55
2023/11/25 11:28:58;;;;;;;0.00;0.00;;;;;;;2.00;80.96;99893.31;15662100;28;20440;-53
2023/11/25 11:36:35;;;;;;;0.00;0.00;;;;;;;1.88;81.55;99891.25;15680993;28;20049;-52
2023/11/25 11:44:10;;;;;;;0.00;0.00;;;;;;;1.74;80.62;99891.00;15682497;28;20323;-55
2023/11/25 11:52:01;;;;;;;0.40;0.40;;;;;;;1.94;79.07;99887.91;15669088;28;20495;-55
2023/11/25 11:59:57;;;;;;;0.10;0.10;;;;;;;1.81;79.60;99882.34;15680769;28;20079;-52
2023/11/25 12:07:33;;;;;;;0.00;0.00;;;;;;;1.89;80.52;99875.19;15680255;28;20067;-52
2023/11/25 12:15:08;;;;;;;0.00;0.00;;;;;;;2.76;77.22;99866.88;15678174;28;20095;-54
2023/11/25 12:22:43;;;;;;;0.00;0.00;;;;;;;1.94;80.44;99867.53;15684390;28;20083;-51
2023/11/25 12:30:17;;;;;;;0.10;0.10;;;;;;;1.98;79.13;99868.03;15677222;28;20084;-56
2023/11/25 12:37:54;;;;;;;0.00;0.00;;;;;;;2.10;80.25;99866.63;15676214;28;20115;-54
2023/11/25 12:45:30;;;;;;;0.10;0.10;;;;;;;2.24;80.83;99873.81;15644055;28;20098;-53
2023/11/25 12:53:14;;;;;;;0.00;0.00;;;;;;;2.16;81.17;99876.50;15651189;28;20057;-54
2023/11/25 13:00:49;;;;;;;0.05;0.05;;;;;;;1.94;81.70;99877.31;15653420;28;20057;-55
2023/11/25 13:08:27;;;;;;;0.08;0.08;;;;;;;1.72;82.89;99845.34;15683667;28;20076;-53
2023/11/25 13:16:03;;;;;;;0.00;0.00;;;;;;;1.76;83.40;99867.81;15682646;28;20036;-52
2023/11/25 13:23:38;;;;;;;1.98;0.80;;;;;;;1.93;83.36;99865.91;15640094;28;20041;-52
2023/11/25 13:31:11;;;;;;;0.20;0.20;;;;;;;1.98;84.18;99876.78;15673682;28;20067;-54
2023/11/25 13:38:47;;;;;;;0.00;0.00;;;;;;;2.37;83.75;99885.59;15671822;28;20123;-54
2023/11/25 13:46:20;;;;;;;0.00;0.00;;;;;;;2.61;81.10;99876.63;15671707;28;20041;-52
2023/11/25 13:53:57;;;;;;;0.00;0.00;;;;;;;2.33;82.15;99874.53;15673240;28;20049;-53
2023/11/25 14:01:30;;;;;;;0.00;0.00;;;;;;;2.71;80.08;99869.25;15654228;23;20049;-50
2023/11/25 14:09:05;;;;;;;0.00;0.00;;;;;;;2.44;80.49;99866.19;15594009;28;20076;-49
2023/11/25 14:16:39;;;;;;;0.00;0.00;;;;;;;2.64;79.86;99881.56;15611682;28;20043;-52
2023/11/25 14:24:13;;;;;;;;;;;;;;;2.38;79.81;99901.34;15611601;28;20168;-50
2023/11/25 14:31:49;;;;;;;0.00;0.00;;;;;;;2.25;80.44;99901.91;15609043;28;19928;-50
2023/11/25 14:39:32;;;;;;;0.00;0.00;;;;;;;2.26;80.61;99908.03;15608245;28;20041;-49
2023/11/25 14:47:07;;;;;;;0.00;0.00;;;;;;;2.30;80.89;99906.69;15602618;28;20084;-51
2023/11/25 14:54:43;;;;;;;0.00;0.00;;;;;;;2.27;81.10;99913.13;15603408;28;20044;-48
2023/11/25 15:02:17;;;;;;;0.10;0.10;;;;;;;2.17;82.12;99932.91;15619246;28;20084;-50
2023/11/25 15:09:53;;;;;;;0.00;0.00;;;;;;;2.31;81.72;99940.09;15598476;28;20100;-49
2023/11/25 15:17:27;;;;;;;0.10;0.10;;;;;;;2.30;80.96;99941.09;15618895;28;20075;-51
2023/11/25 15:25:02;;;;;;;0.00;0.00;;;;;;;2.44;80.81;99942.16;15618052;28;20047;-51
2023/11/25 15:32:35;;;;;;;0.00;0.00;;;;;;;2.39;80.78;99947.16;15617576;28;20365;-51
2023/11/25 15:40:13;;;;;;;0.00;0.00;;;;;;;2.38;81.24;99962.25;15616601;28;20049;-46
2023/11/25 15:47:50;;;;;;;0.00;0.00;;;;;;;2.79;80.09;99967.19;15617245;28;20045;-48
2023/11/25 15:55:26;;;;;;;0.00;0.00;;;;;;;2.30;82.04;99981.66;15598389;28;20655;-50
2023/11/25 16:03:00;;;;;;;0.00;0.00;;;;;;;2.32;80.84;99976.16;15615304;28;20244;-50
2023/11/25 16:10:35;;;;;;;0.00;0.00;;;;;;;2.03;82.88;99998.84;15613859;28;20281;-47
2023/11/25 16:18:09;;;;;;;0.10;0.10;;;;;;;2.28;82.09;100009.28;15564605;28;20368;-52
2023/11/25 16:25:44;;;;;;;0.30;0.30;;;;;;;2.23;81.88;100015.09;15612572;28;20052;-51
2023/11/25 16:33:20;;;;;;;0.32;0.32;;;;;;;2.14;82.16;100023.25;15613336;28;20084;-52
2023/11/25 16:40:55;;;;;;;0.35;0.35;;;;;;;2.20;81.19;100025.25;15613565;28;20041;-49
2023/11/25 16:48:28;;;;;;;0.00;0.00;;;;;;;2.11;82.50;100039.50;15613909;28;20112;-51
2023/11/25 16:56:03;;;;;;;;;;;;;;;2.38;80.40;100047.00;15595549;28;20047;-52
2023/11/25 17:03:37;;;;;;;0.13;0.13;;;;;;;2.35;81.42;100068.50;15610927;28;19931;-49
2023/11/25 17:11:12;;;;;;;0.00;0.00;;;;;;;2.20;79.91;100071.06;15607641;28;20092;-52
2023/11/25 17:18:46;;;;;;;0.00;0.00;;;;;;;2.49;79.91;100074.91;15612085;28;20385;-50
2023/11/25 17:26:21;;;;;;;0.00;0.00;;;;;;;2.77;78.08;100086.63;15610878;28;20097;-49
2023/11/25 17:33:55;;;;;;;0.00;0.00;;;;;;;2.60;79.10;100097.50;15611822;28;20037;-49
2023/11/25 17:41:30;;;;;;;0.50;0.50;;;;;;;2.57;79.25;100104.00;15593615;28;20045;-47
2023/11/25 17:49:03;;;;;;;0.10;0.10;;;;;;;2.35;79.65;100126.78;15608787;28;20380;-49
2023/11/25 17:56:39;;;;;;;0.00;0.00;;;;;;;2.29;79.80;100128.28;15620057;28;20038;-48
2023/11/25 18:04:12;;;;;;;0.00;0.00;;;;;;;2.41;80.58;100141.13;15596134;28;20045;-48
2023/11/25 18:11:47;;;;;;;0.00;0.00;;;;;;;2.43;80.92;100157.72;15597986;28;20432;-57
2023/11/25 18:19:21;;;;;;;0.00;0.00;;;;;;;2.41;80.82;100171.09;15619381;28;20136;-49
2023/11/25 18:27:01;;;;;;;0.08;0.08;;;;;;;2.29;81.38;100188.38;15623751;28;20068;-49
2023/11/25 18:34:35;;;;;;;1.23;1.23;;;;;;;2.45;80.43;100177.72;15598285;28;20050;-48
2023/11/25 18:42:11;;;;;;;0.00;0.00;;;;;;;2.29;80.14;100204.25;15587404;28;20167;-48
2023/11/25 18:49:44;;;;;;;0.20;0.20;;;;;;;2.30;79.36;100216.50;15614191;28;20451;-50
2023/11/25 18:57:21;;;;;;;0.05;0.05;;;;;;;2.29;77.61;100215.69;15618930;28;20056;-53
2023/11/25 19:04:54;;;;;;;0.10;0.10;;;;;;;2.38;76.43;100236.81;15616175;28;20068;-48
2023/11/25 19:12:30;;;;;;;0.00;0.00;;;;;;;2.11;76.41;100243.34;15617369;28;20124;-50
2023/11/25 19:20:05;;;;;;;0.00;0.00;;;;;;;1.73;76.96;100249.16;15616958;28;20052;-51
2023/11/25 19:27:41;;;;;;;0.00;0.00;;;;;;;1.80;76.31;100259.88;15617128;28;20634;-52
2023/11/25 19:35:14;;;;;;;0.00;0.00;;;;;;;1.48;75.28;100280.03;15598800;28;20033;-49
2023/11/25 19:42:49;;;;;;;0.00;0.00;;;;;;;1.44;75.19;100291.09;15611899;28;20052;-55
2023/11/25 19:50:22;;;;;;;0.08;0.08;;;;;;;1.69;75.41;100291.97;15616297;28;20157;-50
2023/11/25 19:58:07;;;;;;;0.00;0.00;;;;;;;1.47;76.47;100307.47;15582025;28;20497;-53
2023/11/25 20:05:40;;;;;;;0.00;0.00;;;;;;;1.47;77.54;100310.09;15455217;28;20038;-51
2023/11/25 20:13:16;;;;;;;0.00;0.00;;;;;;;1.41;78.60;100315.22;15479835;28;20066;-54
2023/11/25 20:20:52;;;;;;;0.00;0.00;;;;;;;1.46;77.81;100329.63;15492360;28;20129;-54
2023/11/25 20:28:28;;;;;;;0.00;0.00;;;;;;;1.30;79.14;100339.31;15497256;28;20049;-53
2023/11/25 20:36:05;;;;;;;0.00;0.00;;;;;;;1.40;78.80;100351.44;15494162;28;20046;-53
2023/11/25 20:43:40;;;;;;;0.00;0.00;;;;;;;1.45;80.24;100361.53;15492500;28;20046;-54
2023/11/25 20:51:14;;;;;;;0.05;0.05;;;;;;;1.68;78.58;100375.81;15501313;28;20050;-54
2023/11/25 20:58:50;;;;;;;0.10;0.10;;;;;;;1.65;78.33;100373.47;15491967;28;20516;-49
2023/11/25 21:06:24;;;;;;;0.00;0.00;;;;;;;1.32;78.62;100374.38;15502908;28;20568;-48
2023/11/25 21:13:59;;;;;;;0.20;0.20;;;;;;;1.31;79.86;100383.28;15475254;28;20042;-52
2023/11/25 21:21:34;;;;;;;0.00;0.00;;;;;;;1.61;78.18;100389.81;15492475;28;20093;-49
2023/11/25 21:29:09;;;;;;;0.52;0.45;;;;;;;1.30;79.52;100398.28;15492083;28;20568;-50
2023/11/25 21:36:44;;;;;;;0.35;0.20;;;;;;;1.56;77.81;100411.47;15491463;28;20046;-51
2023/11/25 21:44:19;;;;;;;0.00;0.00;;;;;;;1.41;77.95;100413.91;15496445;28;20092;-50
2023/11/25 21:51:53;;;;;;;0.00;0.00;;;;;;;1.42;77.00;100414.72;15485119;28;20169;-49
2023/11/25 21:59:29;;;;;;;0.00;0.00;;;;;;;1.24;77.06;100420.09;15513268;28;20117;-49
2023/11/25 22:07:05;;;;;;;0.20;0.20;;;;;;;1.56;74.97;100435.28;15508928;28;20054;-52
2023/11/25 22:14:44;;;;;;;0.00;0.00;;;;;;;1.35;74.45;100403.09;15490935;28;20745;-50
2023/11/25 22:22:19;;;;;;;0.00;0.00;;;;;;;1.34;75.08;100441.13;15507640;28;20485;-49
2023/11/25 22:29:53;;;;;;;0.00;0.00;;;;;;;1.48;74.34;100449.28;15497627;28;20101;-50
2023/11/25 22:37:27;;;;;;;0.00;0.00;;;;;;;1.46;73.80;100455.75;15489120;28;20114;-52
2023/11/25 22:45:02;;;;;;;0.00;0.00;;;;;;;1.62;73.80;100449.69;15510088;28;20130;-50
2023/11/25 22:52:36;;;;;;;0.00;0.00;;;;;;;1.76;72.23;100382.91;15472617;28;20559;-53
2023/11/25 23:00:27;;;;;;;3.13;1.65;;;;;;;1.45;73.51;100462.84;15504894;28;20429;-50
2023/11/25 23:08:02;;;;;;;0.00;0.00;;;;;;;1.42;72.95;100464.97;15496256;28;20046;-53
2023/11/25 23:15:39;;;;;;;0.00;0.00;;;;;;;1.37;72.77;100480.47;15496007;28;20046;-49
2023/11/25 23:23:12;;;;;;;0.00;0.00;;;;;;;0.97;73.51;100469.47;15477550;28;20057;-49
2023/11/25 23:30:47;;;;;;;;;;;;;;;1.06;72.19;100486.22;15478442;28;20126;-50
2023/11/25 23:38:21;;;;;;;0.10;0.10;;;;;;;1.48;70.20;100488.13;15494680;28;19921;-50
2023/11/25 23:45:57;;;;;;;0.10;0.10;;;;;;;1.37;70.20;100488.41;15482085;28;20141;-50
2023/11/25 23:53:30;;;;;;;0.00;0.00;;;;;;;1.75;70.31;100500.34;15475770;28;20042;-52
